createdAt,value
2022-12-18T00:00:10.657Z,-7.40
2022-12-18T00:02:39.403Z,-7.46
2022-12-18T00:05:10.859Z,-7.46
2022-12-18T00:07:39.854Z,-7.42
2022-12-18T00:10:09.611Z,-7.50
2022-12-18T00:12:38.215Z,-7.53
2022-12-18T00:15:07.755Z,-7.57
2022-12-18T00:17:36.394Z,-7.65
2022-12-18T00:20:05.600Z,-7.63
2022-12-18T00:22:35.548Z,-7.71
2022-12-18T00:25:04.799Z,-7.74
2022-12-18T00:27:33.365Z,-7.81
2022-12-18T00:30:02.061Z,-7.75
2022-12-18T00:32:30.741Z,-7.82
2022-12-18T00:34:59.345Z,-7.80
2022-12-18T00:37:27.923Z,-7.77
2022-12-18T00:39:57.964Z,-7.80
2022-12-18T00:42:44.291Z,-7.76
2022-12-18T00:45:13.346Z,-7.86
2022-12-18T00:47:42.458Z,-7.93
2022-12-18T00:50:11.731Z,-7.90
2022-12-18T00:52:41.591Z,-7.85
2022-12-18T00:55:11.826Z,-7.88
2022-12-18T00:57:40.595Z,-7.76
2022-12-18T01:00:11.086Z,-7.85
2022-12-18T01:02:39.999Z,-7.89
2022-12-18T01:05:09.488Z,-7.85
2022-12-18T01:07:38.125Z,-7.86
2022-12-18T01:10:07.880Z,-7.89
2022-12-18T01:12:37.877Z,-7.89
2022-12-18T01:15:08.105Z,-7.94
2022-12-18T01:17:37.536Z,-7.93
2022-12-18T01:20:07.527Z,-7.92
2022-12-18T01:22:36.113Z,-7.90
2022-12-18T01:25:06.301Z,-7.94
2022-12-18T01:27:36.750Z,-8.07
2022-12-18T01:30:06.741Z,-8.07
2022-12-18T01:32:35.323Z,-8.02
2022-12-18T01:35:04.044Z,-8.03
2022-12-18T01:37:32.741Z,-8.06
2022-12-18T01:40:01.368Z,-8.03
2022-12-18T01:42:30.030Z,-8.00
2022-12-18T01:45:06.491Z,-7.93
2022-12-18T01:47:38.746Z,-7.97
2022-12-18T01:50:11.066Z,-7.97
2022-12-18T01:52:40.608Z,-7.92
2022-12-18T01:55:10.698Z,-7.88
2022-12-18T01:57:40.040Z,-8.00
2022-12-18T02:00:12.536Z,-7.93
2022-12-18T02:02:41.694Z,-8.00
2022-12-18T02:05:11.318Z,-7.97
2022-12-18T02:07:45.911Z,-8.02
2022-12-18T02:10:18.495Z,-8.02
2022-12-18T02:12:50.932Z,-8.11
2022-12-18T02:15:28.553Z,-8.10
2022-12-18T02:18:00.091Z,-8.19
2022-12-18T02:20:34.311Z,-8.15
2022-12-18T02:23:09.427Z,-8.15
2022-12-18T02:25:53.979Z,-8.08
2022-12-18T02:28:24.970Z,-7.98
2022-12-18T02:30:55.786Z,-8.01
2022-12-18T02:33:24.920Z,-8.06
2022-12-18T02:35:54.560Z,-8.02
2022-12-18T02:38:23.235Z,-8.01
2022-12-18T02:40:53.831Z,-7.94
2022-12-18T02:43:22.800Z,-7.93
2022-12-18T02:45:54.514Z,-7.94
2022-12-18T02:48:30.279Z,-7.98
2022-12-18T02:51:05.138Z,-8.02
2022-12-18T02:53:39.318Z,-8.06
2022-12-18T02:56:13.070Z,-8.07
2022-12-18T02:58:47.471Z,-8.12
2022-12-18T03:01:19.589Z,-8.24
2022-12-18T03:03:51.067Z,-8.37
2022-12-18T03:06:24.931Z,-8.36
2022-12-18T03:08:56.508Z,-8.44
2022-12-18T03:11:43.683Z,-8.51
2022-12-18T03:14:13.334Z,-8.48
2022-12-18T03:16:42.388Z,-8.58
2022-12-18T03:19:13.920Z,-8.54
2022-12-18T03:21:44.759Z,-8.64
2022-12-18T03:24:13.736Z,-8.73
2022-12-18T03:26:47.068Z,-8.76
2022-12-18T03:29:19.685Z,-8.70
2022-12-18T03:31:51.575Z,-8.81
2022-12-18T03:34:25.142Z,-8.94
2022-12-18T03:36:54.065Z,-8.92
2022-12-18T03:39:22.719Z,-8.86
2022-12-18T03:41:54.906Z,-8.88
2022-12-18T03:44:30.220Z,-8.95
2022-12-18T03:47:04.154Z,-8.87
2022-12-18T03:49:37.355Z,-8.91
2022-12-18T03:52:08.428Z,-8.99
2022-12-18T03:54:37.814Z,-8.96
2022-12-18T03:57:11.949Z,-8.94
2022-12-18T03:59:41.391Z,-9.02
2022-12-18T04:02:10.315Z,-9.09
2022-12-18T04:04:40.607Z,-9.10
2022-12-18T04:07:09.607Z,-9.16
2022-12-18T04:09:38.916Z,-9.20
2022-12-18T04:12:09.098Z,-9.15
2022-12-18T04:14:37.725Z,-9.40
2022-12-18T04:17:06.334Z,-9.29
2022-12-18T04:19:34.928Z,-9.21
2022-12-18T04:22:03.556Z,-9.18
2022-12-18T04:24:32.210Z,-9.03
2022-12-18T04:27:00.763Z,-9.14
2022-12-18T04:29:30.747Z,-9.18
2022-12-18T04:31:59.363Z,-9.14
2022-12-18T04:34:28.444Z,-9.18
2022-12-18T04:36:57.014Z,-9.21
2022-12-18T04:39:26.202Z,-9.29
2022-12-18T04:41:55.241Z,-9.20
2022-12-18T04:44:23.840Z,-9.26
2022-12-18T04:46:53.870Z,-9.44
2022-12-18T04:49:23.097Z,-9.51
2022-12-18T04:51:51.724Z,-9.57
2022-12-18T04:54:21.784Z,-9.54
2022-12-18T04:56:50.334Z,-9.61
2022-12-18T04:59:18.916Z,-9.63
2022-12-18T05:01:47.825Z,-9.66
2022-12-18T05:04:17.848Z,-9.69
2022-12-18T05:06:46.674Z,-9.74
2022-12-18T05:09:15.868Z,-9.85
2022-12-18T05:11:45.093Z,-9.82
2022-12-18T05:14:14.943Z,-10.02
2022-12-18T05:16:43.587Z,-10.05
2022-12-18T05:19:12.736Z,-10.09
2022-12-18T05:21:43.182Z,-10.04
2022-12-18T05:24:12.538Z,-10.10
2022-12-18T05:26:41.295Z,-10.08
2022-12-18T05:29:13.138Z,-10.08
2022-12-18T05:31:42.686Z,-9.98
2022-12-18T05:34:12.111Z,-10.17
2022-12-18T05:36:43.073Z,-10.23
2022-12-18T05:39:13.126Z,-10.31
2022-12-18T05:41:41.775Z,-10.24
2022-12-18T05:44:11.510Z,-10.23
2022-12-18T05:46:40.146Z,-10.21
2022-12-18T05:49:10.163Z,-10.32
2022-12-18T05:51:39.063Z,-10.32
2022-12-18T05:54:09.274Z,-10.31
2022-12-18T05:56:37.881Z,-10.45
2022-12-18T05:59:06.471Z,-10.33
2022-12-18T06:01:35.230Z,-10.46
2022-12-18T06:04:04.034Z,-10.37
2022-12-18T06:06:34.109Z,-10.31
2022-12-18T06:09:09.009Z,-10.44
2022-12-18T06:11:39.196Z,-10.42
2022-12-18T06:14:08.205Z,-10.43
2022-12-18T06:16:36.826Z,-10.35
2022-12-18T06:19:07.455Z,-10.36
2022-12-18T06:21:36.152Z,-10.37
2022-12-18T06:24:05.220Z,-10.43
2022-12-18T06:26:33.839Z,-10.47
2022-12-18T06:29:03.841Z,-10.46
2022-12-18T06:31:32.623Z,-10.47
2022-12-18T06:34:01.299Z,-10.42
2022-12-18T06:36:30.241Z,-10.39
2022-12-18T06:38:59.091Z,-10.34
2022-12-18T06:41:27.748Z,-10.37
2022-12-18T06:43:59.692Z,-10.36
2022-12-18T06:46:30.127Z,-10.31
2022-12-18T06:48:58.774Z,-10.34
2022-12-18T06:51:27.458Z,-10.39
2022-12-18T06:53:56.022Z,-10.46
2022-12-18T06:56:24.638Z,-10.39
2022-12-18T06:58:53.314Z,-10.43
2022-12-18T07:01:21.965Z,-10.43
2022-12-18T07:03:55.743Z,-10.34
2022-12-18T07:06:26.602Z,-10.41
2022-12-18T07:08:56.005Z,-10.33
2022-12-18T07:11:25.257Z,-10.35
2022-12-18T07:13:54.444Z,-10.43
2022-12-18T07:16:25.666Z,-10.46
2022-12-18T07:18:56.642Z,-10.45
2022-12-18T07:21:26.089Z,-10.42
2022-12-18T07:23:54.817Z,-10.52
2022-12-18T07:26:24.214Z,-10.40
2022-12-18T07:28:56.936Z,-10.43
2022-12-18T07:31:26.550Z,-10.36
2022-12-18T07:33:56.831Z,-10.31
2022-12-18T07:36:25.653Z,-10.43
2022-12-18T07:38:54.468Z,-10.67
2022-12-18T07:41:23.143Z,-10.85
2022-12-18T07:43:51.776Z,-10.87
2022-12-18T07:46:20.918Z,-10.78
2022-12-18T07:48:50.443Z,-10.60
2022-12-18T07:51:20.704Z,-10.71
2022-12-18T07:53:52.307Z,-10.78
2022-12-18T07:56:27.723Z,-10.70
2022-12-18T07:58:58.127Z,-10.77
2022-12-18T08:01:27.011Z,-10.72
2022-12-18T08:03:55.890Z,-10.74
2022-12-18T08:06:25.826Z,-10.78
2022-12-18T08:08:54.980Z,-10.73
2022-12-18T08:11:24.585Z,-10.59
2022-12-18T08:13:53.614Z,-10.77
2022-12-18T08:16:22.958Z,-10.60
2022-12-18T08:18:53.289Z,-10.48
2022-12-18T08:21:25.065Z,-10.55
2022-12-18T08:23:56.568Z,-10.43
2022-12-18T08:26:26.508Z,-10.39
2022-12-18T08:28:55.757Z,-10.37
2022-12-18T08:31:24.957Z,-10.38
2022-12-18T08:33:54.937Z,-10.47
2022-12-18T08:36:24.807Z,-10.39
2022-12-18T08:38:55.759Z,-10.61
2022-12-18T08:41:24.363Z,-10.65
2022-12-18T08:44:10.368Z,-10.63
2022-12-18T08:46:41.178Z,-10.56
2022-12-18T08:49:10.836Z,-10.56
2022-12-18T08:51:39.569Z,-10.49
2022-12-18T08:54:09.683Z,-10.64
2022-12-18T08:56:38.314Z,-10.63
2022-12-18T08:59:07.498Z,-10.46
2022-12-18T09:01:36.317Z,-10.41
2022-12-18T09:04:05.369Z,-10.35
2022-12-18T09:06:36.295Z,-10.32
2022-12-18T09:09:06.487Z,-10.35
2022-12-18T09:11:36.463Z,-10.29
2022-12-18T09:14:05.412Z,-10.21
2022-12-18T09:16:35.868Z,-10.10
2022-12-18T09:19:05.677Z,-9.99
2022-12-18T09:21:41.207Z,-9.95
2022-12-18T09:24:14.356Z,-10.06
2022-12-18T09:26:47.264Z,-9.95
2022-12-18T09:29:16.403Z,-9.82
2022-12-18T09:31:48.348Z,-9.70
2022-12-18T09:34:17.520Z,-9.78
2022-12-18T09:36:46.158Z,-9.67
2022-12-18T09:39:16.125Z,-9.72
2022-12-18T09:41:51.830Z,-9.65
2022-12-18T09:44:27.426Z,-9.52
2022-12-18T09:47:04.430Z,-9.39
2022-12-18T09:49:36.864Z,-9.52
2022-12-18T09:52:11.133Z,-9.50
2022-12-18T09:54:41.666Z,-9.42
2022-12-18T09:57:16.059Z,-9.39
2022-12-18T09:59:46.965Z,-9.34
2022-12-18T10:02:22.237Z,-9.28
2022-12-18T10:05:03.848Z,-9.41
2022-12-18T10:07:43.941Z,-9.30
2022-12-18T10:10:23.893Z,-9.30
2022-12-18T10:13:04.551Z,-9.25
2022-12-18T10:15:38.635Z,-9.14
2022-12-18T10:18:21.679Z,-8.97
2022-12-18T10:20:52.177Z,-8.89
2022-12-18T10:23:24.419Z,-8.69
2022-12-18T10:26:05.882Z,-8.77
2022-12-18T10:28:38.715Z,-8.74
2022-12-18T10:31:07.918Z,-8.61
2022-12-18T10:33:36.765Z,-8.51
2022-12-18T10:36:07.254Z,-8.39
2022-12-18T10:38:36.078Z,-8.25
2022-12-18T10:41:06.614Z,-8.06
2022-12-18T10:43:38.389Z,-8.01
2022-12-18T10:46:25.242Z,-7.78
2022-12-18T10:49:22.223Z,-7.56
2022-12-18T10:52:08.262Z,-7.46
2022-12-18T10:54:37.403Z,-7.31
2022-12-18T10:57:33.935Z,-7.16
2022-12-18T11:00:23.728Z,-6.99
2022-12-18T11:02:52.861Z,-6.99
2022-12-18T11:05:29.867Z,-6.88
2022-12-18T11:07:59.789Z,-6.76
2022-12-18T11:10:32.280Z,-6.69
2022-12-18T11:13:12.678Z,-6.59
2022-12-18T11:15:43.376Z,-6.52
2022-12-18T11:18:19.107Z,-6.34
2022-12-18T11:20:58.198Z,-6.11
2022-12-18T11:23:27.791Z,-5.98
2022-12-18T11:25:58.913Z,-5.80
2022-12-18T11:28:31.142Z,-5.63
2022-12-18T11:31:19.193Z,-5.59
2022-12-18T11:36:52.566Z,-5.40
2022-12-18T11:39:24.892Z,-5.28
2022-12-18T11:42:12.352Z,-5.19
2022-12-18T11:44:45.356Z,-5.11
2022-12-18T11:47:24.171Z,-5.14
2022-12-18T11:49:53.394Z,-4.98
2022-12-18T11:52:23.727Z,-4.84
2022-12-18T11:54:53.740Z,-4.76
2022-12-18T11:57:35.004Z,-4.65
2022-12-18T12:00:09.578Z,-4.52
2022-12-18T12:02:59.911Z,-4.47
2022-12-18T12:05:38.747Z,-4.35
2022-12-18T12:08:15.300Z,-4.35
2022-12-18T12:10:51.536Z,-4.28
2022-12-18T12:13:32.195Z,-4.15
2022-12-18T12:16:08.634Z,-4.18
2022-12-18T12:18:49.178Z,-4.10
2022-12-18T12:21:22.572Z,-4.05
2022-12-18T12:23:56.120Z,-3.96
2022-12-18T12:26:29.611Z,-3.86
2022-12-18T12:29:04.720Z,-3.81
2022-12-18T12:31:49.554Z,-3.83
2022-12-18T12:34:22.086Z,-3.77
2022-12-18T12:37:02.474Z,-3.73
2022-12-18T12:39:33.485Z,-3.71
2022-12-18T12:42:20.670Z,-3.65
2022-12-18T12:44:56.277Z,-3.50
2022-12-18T12:47:28.115Z,-3.38
2022-12-18T12:49:58.765Z,-3.34
2022-12-18T12:52:33.179Z,-3.30
2022-12-18T12:55:02.542Z,-3.27
2022-12-18T12:57:37.099Z,-3.25
2022-12-18T13:00:11.592Z,-3.24
2022-12-18T13:02:44.800Z,-3.10
2022-12-18T13:05:20.007Z,-3.10
2022-12-18T13:07:53.409Z,-3.01
2022-12-18T13:10:28.686Z,-2.97
2022-12-18T13:12:57.920Z,-2.97
2022-12-18T13:15:31.512Z,-2.91
2022-12-18T13:18:07.343Z,-2.92
2022-12-18T13:20:38.808Z,-2.82
2022-12-18T13:23:28.945Z,-2.76
2022-12-18T13:25:58.695Z,-2.87
2022-12-18T13:29:00.181Z,-2.82
2022-12-18T13:32:10.782Z,-2.72
2022-12-18T13:34:39.668Z,-2.87
2022-12-18T13:37:47.245Z,-2.81
2022-12-18T13:40:56.107Z,-2.79
2022-12-18T13:43:28.591Z,-2.71
2022-12-18T13:46:06.626Z,-2.68
2022-12-18T13:48:36.831Z,-2.63
2022-12-18T13:51:06.787Z,-2.63
2022-12-18T13:53:40.834Z,-2.73
2022-12-18T13:56:10.063Z,-2.67
2022-12-18T13:58:39.117Z,-2.68
2022-12-18T14:01:23.807Z,-2.65
2022-12-18T14:03:52.703Z,-2.60
2022-12-18T14:06:22.541Z,-2.56
2022-12-18T14:08:53.439Z,-2.50
2022-12-18T14:11:25.367Z,-2.50
2022-12-18T14:13:55.459Z,-2.52
2022-12-18T14:16:24.403Z,-2.53
2022-12-18T14:18:57.573Z,-2.52
2022-12-18T14:21:33.439Z,-2.56
2022-12-18T14:24:08.718Z,-2.62
2022-12-18T14:26:37.345Z,-2.64
2022-12-18T14:29:21.580Z,-2.63
2022-12-18T14:32:17.316Z,-2.68
2022-12-18T14:34:48.115Z,-2.77
2022-12-18T14:37:18.293Z,-2.69
2022-12-18T14:39:59.570Z,-2.78
2022-12-18T14:42:29.115Z,-2.77
2022-12-18T14:45:41.533Z,-2.76
2022-12-18T14:48:16.500Z,-2.73
2022-12-18T14:51:00.762Z,-2.83
2022-12-18T14:53:39.209Z,-2.85
2022-12-18T14:56:19.229Z,-2.95
2022-12-18T14:58:49.746Z,-3.00
2022-12-18T15:01:23.833Z,-3.00
2022-12-18T15:03:53.321Z,-3.04
2022-12-18T15:06:29.127Z,-3.07
2022-12-18T15:08:58.104Z,-3.10
2022-12-18T15:11:35.697Z,-3.13
2022-12-18T15:14:40.067Z,-3.14
2022-12-18T15:17:17.784Z,-3.13
2022-12-18T15:19:47.502Z,-3.18
2022-12-18T15:22:25.274Z,-3.25
2022-12-18T15:24:54.084Z,-3.30
2022-12-18T15:27:27.516Z,-3.39
2022-12-18T15:30:18.078Z,-3.35
2022-12-18T15:32:46.920Z,-3.34
2022-12-18T15:35:17.815Z,-3.42
2022-12-18T15:37:46.710Z,-3.45
2022-12-18T15:40:16.100Z,-3.48
2022-12-18T15:43:05.835Z,-3.42
2022-12-18T15:45:35.046Z,-3.49
2022-12-18T15:48:21.690Z,-3.54
2022-12-18T15:50:59.419Z,-3.57
2022-12-18T15:53:31.754Z,-3.62
2022-12-18T15:56:39.764Z,-3.59
2022-12-18T16:02:17.905Z,-3.58
2022-12-18T16:04:47.412Z,-3.61
2022-12-18T16:07:18.859Z,-3.64
2022-12-18T16:09:51.628Z,-3.64
2022-12-18T16:12:23.269Z,-3.64
2022-12-18T16:14:53.277Z,-3.68
2022-12-18T16:17:22.445Z,-3.64
2022-12-18T16:19:51.287Z,-3.66
2022-12-18T16:22:23.272Z,-3.66
2022-12-18T16:24:52.910Z,-3.67
2022-12-18T16:27:22.409Z,-3.71
2022-12-18T16:29:52.726Z,-3.76
2022-12-18T16:32:23.346Z,-3.74
2022-12-18T16:34:52.307Z,-3.76
2022-12-18T16:37:20.910Z,-3.75
2022-12-18T16:39:49.630Z,-3.81
2022-12-18T16:42:20.178Z,-3.88
2022-12-18T16:44:51.278Z,-3.90
2022-12-18T16:47:21.192Z,-3.82
2022-12-18T16:49:53.202Z,-3.84
2022-12-18T16:52:22.315Z,-3.84
2022-12-18T16:54:50.935Z,-3.82
2022-12-18T16:57:21.529Z,-3.96
2022-12-18T16:59:54.163Z,-4.00
2022-12-18T17:02:25.666Z,-3.94
2022-12-18T17:04:56.780Z,-3.97
2022-12-18T17:07:26.194Z,-3.92
2022-12-18T17:09:55.195Z,-4.02
2022-12-18T17:12:24.289Z,-4.04
2022-12-18T17:14:52.894Z,-3.96
2022-12-18T17:17:23.084Z,-3.97
2022-12-18T17:19:53.877Z,-4.00
2022-12-18T17:22:24.093Z,-3.93
2022-12-18T17:24:52.722Z,-3.83
2022-12-18T17:27:21.337Z,-3.81
2022-12-18T17:29:49.991Z,-3.84
2022-12-18T17:32:25.686Z,-3.85
2022-12-18T17:34:55.679Z,-3.82
2022-12-18T17:37:29.979Z,-3.81
2022-12-18T17:39:58.693Z,-3.85
2022-12-18T17:42:27.438Z,-3.79
2022-12-18T17:45:00.152Z,-3.79
2022-12-18T17:47:30.039Z,-3.84
2022-12-18T17:50:00.116Z,-3.80
2022-12-18T17:52:28.969Z,-3.83
2022-12-18T17:54:57.676Z,-3.78
2022-12-18T17:57:26.328Z,-3.77
2022-12-18T17:59:55.005Z,-3.77
2022-12-18T18:02:24.308Z,-3.77
2022-12-18T18:04:53.465Z,-3.77
2022-12-18T18:07:31.629Z,-3.77
2022-12-18T18:10:00.360Z,-3.78
2022-12-18T18:12:51.038Z,-3.73
2022-12-18T18:15:19.784Z,-3.76
2022-12-18T18:17:48.383Z,-3.74
2022-12-18T18:20:22.257Z,-3.69
2022-12-18T18:22:52.906Z,-3.65
2022-12-18T18:25:21.648Z,-3.73
2022-12-18T18:27:50.744Z,-3.71
2022-12-18T18:30:19.717Z,-3.72
2022-12-18T18:32:48.775Z,-3.70
2022-12-18T18:35:45.063Z,-3.68
2022-12-18T18:38:08.457Z,-3.69
2022-12-18T18:40:37.194Z,-3.70
2022-12-18T18:43:05.844Z,-3.66
2022-12-18T18:45:35.353Z,-3.71
2022-12-18T18:48:04.015Z,-3.67
2022-12-18T18:50:32.621Z,-3.71
2022-12-18T18:53:01.207Z,-3.68
2022-12-18T18:55:34.157Z,-3.66
2022-12-18T18:58:02.769Z,-3.70
2022-12-18T19:01:05.860Z,-3.64
2022-12-18T19:03:34.684Z,-3.66
2022-12-18T19:06:03.283Z,-3.65
2022-12-18T19:08:34.232Z,-3.66
2022-12-18T19:11:06.034Z,-3.61
2022-12-18T19:13:34.104Z,-3.60
2022-12-18T19:16:05.467Z,-3.61
2022-12-18T19:18:34.532Z,-3.60
2022-12-18T19:21:05.180Z,-3.56
2022-12-18T19:23:34.641Z,-3.64
2022-12-18T19:28:55.371Z,-3.65
2022-12-18T19:31:27.047Z,-3.59
2022-12-18T19:33:58.265Z,-3.55
2022-12-18T19:36:28.160Z,-3.62
2022-12-18T19:38:58.454Z,-3.63
2022-12-18T19:41:31.125Z,-3.67
2022-12-18T19:44:01.609Z,-3.65
2022-12-18T19:46:38.296Z,-3.64
2022-12-18T19:49:11.168Z,-3.62
2022-12-18T19:51:40.968Z,-3.65
2022-12-18T19:54:13.351Z,-3.64
2022-12-18T19:56:46.717Z,-3.65
2022-12-18T19:59:16.918Z,-3.59
2022-12-18T20:01:45.665Z,-3.66
2022-12-18T20:04:14.383Z,-3.64
2022-12-18T20:06:53.405Z,-3.73
2022-12-18T20:09:29.195Z,-3.76
2022-12-18T20:11:59.850Z,-3.72
2022-12-18T20:14:28.601Z,-3.86
2022-12-18T20:16:57.728Z,-3.82
2022-12-18T20:19:29.636Z,-3.85
2022-12-18T20:21:58.893Z,-3.70
2022-12-18T20:24:27.880Z,-3.76
2022-12-18T20:26:56.555Z,-3.77
2022-12-18T20:29:26.713Z,-3.81
2022-12-18T20:31:55.287Z,-3.78
2022-12-18T20:34:28.123Z,-3.78
2022-12-18T20:36:57.079Z,-3.81
2022-12-18T20:39:27.482Z,-3.86
2022-12-18T20:41:57.117Z,-4.00
2022-12-18T20:44:27.184Z,-3.82
2022-12-18T20:46:57.360Z,-3.89
2022-12-18T20:49:27.600Z,-4.00
2022-12-18T20:51:58.262Z,-4.04
2022-12-18T20:54:28.051Z,-3.99
2022-12-18T20:56:57.262Z,-3.93
2022-12-18T20:59:27.367Z,-4.00
2022-12-18T21:01:56.309Z,-3.99
2022-12-18T21:04:25.386Z,-3.96
2022-12-18T21:06:55.716Z,-3.85
2022-12-18T21:09:37.184Z,-3.84
2022-12-18T21:12:27.504Z,-3.87
2022-12-18T21:14:59.417Z,-3.87
2022-12-18T21:17:28.600Z,-3.85
2022-12-18T21:19:58.426Z,-3.86
2022-12-18T21:22:27.411Z,-3.86
2022-12-18T21:24:55.999Z,-3.85
2022-12-18T21:27:24.660Z,-3.84
2022-12-18T21:29:53.447Z,-3.84
2022-12-18T21:32:24.664Z,-3.76
2022-12-18T21:34:55.736Z,-3.79
2022-12-18T21:37:24.356Z,-3.77
2022-12-18T21:39:53.024Z,-3.74
2022-12-18T21:42:39.466Z,-3.72
2022-12-18T21:45:09.024Z,-3.64
2022-12-18T21:47:39.026Z,-3.72
2022-12-18T21:50:08.107Z,-3.65
2022-12-18T21:52:36.754Z,-3.62
2022-12-18T21:55:09.331Z,-3.58
2022-12-18T21:57:38.888Z,-3.68
2022-12-18T22:00:12.499Z,-3.72
2022-12-18T22:03:17.992Z,-3.60
2022-12-18T22:05:38.629Z,-3.58
2022-12-18T22:08:15.547Z,-3.69
2022-12-18T22:10:46.345Z,-3.62
2022-12-18T22:13:19.445Z,-3.64
2022-12-18T22:15:48.139Z,-3.56
2022-12-18T22:18:18.073Z,-3.71
2022-12-18T22:20:46.710Z,-3.69
2022-12-18T22:23:15.352Z,-3.66
2022-12-18T22:25:51.796Z,-3.64
2022-12-18T22:28:38.053Z,-3.72
2022-12-18T22:31:06.810Z,-3.69
2022-12-18T22:33:36.772Z,-3.68
2022-12-18T22:36:06.638Z,-3.70
2022-12-18T22:38:35.311Z,-3.68
2022-12-18T22:41:03.931Z,-3.73
2022-12-18T22:43:33.394Z,-3.70
2022-12-18T22:46:04.618Z,-3.67
2022-12-18T22:48:33.276Z,-3.73
2022-12-18T22:51:03.480Z,-3.61
2022-12-18T22:53:32.155Z,-3.57
2022-12-18T22:56:03.923Z,-3.41
2022-12-18T22:58:32.517Z,-3.65
2022-12-18T23:01:01.133Z,-3.54
2022-12-18T23:03:29.893Z,-3.57
2022-12-18T23:06:05.353Z,-3.52
2022-12-18T23:08:34.019Z,-3.53
2022-12-18T23:11:03.206Z,-3.39
2022-12-18T23:13:31.844Z,-3.49
2022-12-18T23:16:00.775Z,-3.43
2022-12-18T23:18:29.443Z,-3.43
2022-12-18T23:20:58.083Z,-3.51
2022-12-18T23:23:29.657Z,-3.48
2022-12-18T23:26:02.342Z,-3.42
2022-12-18T23:28:32.702Z,-3.47
2022-12-18T23:31:06.704Z,-3.45
2022-12-18T23:33:35.394Z,-3.37
2022-12-18T23:36:05.158Z,-3.42
2022-12-18T23:38:36.008Z,-3.61
2022-12-18T23:41:08.045Z,-3.51
2022-12-18T23:43:36.794Z,-3.60
2022-12-18T23:46:11.296Z,-3.64
2022-12-18T23:48:40.396Z,-3.55
2022-12-18T23:51:10.151Z,-3.56
2022-12-18T23:53:40.185Z,-3.54
2022-12-18T23:56:10.162Z,-3.57
2022-12-18T23:58:39.519Z,-3.45
